EGNS/IOM METAR and TAF weather

Enter ICAO airport designator
Station Type Date Time Source
EGNS METAR 2018/12/10 17:50 UTC NOAA

EGNS 101750Z 20007KT 9999 FEW018 09/06 Q1026 NOSIG


Station Type Date Time Source
EGNS Decoded METAR 2018/12/10 17:50 UTC NOAA

Isle Of Man / Ronaldsway Airport, United Kingdom (EGNS) 54-05N 004-38W 0M
Dec 10, 2018 - 12:50 PM EST / 2018.12.10 1750 UTC
Wind: from the SSW (200 degrees) at 8 MPH (7 KT):0
Visibility: greater than 7 mile(s):0
Sky conditions: mostly clear
Temperature: 48 F (9 C)
Dew Point: 42 F (6 C)
Relative Humidity: 81%
Pressure (altimeter): 30.30 in. Hg (1026 hPa)
ob: EGNS 101750Z 20007KT 9999 FEW018 09/06 Q1026 NOSIG
cycle: 18

Station Type Date Time Source
EGNS TAF 2017/03/09 09:27 UTC NOAA

TAF TAF EGNS 090800Z 0909/0921 29012KT 9999 SCT018


Example: see airport list